sensor_id;sensor_type;location;lat;lon;timestamp;pressure;altitude;pressure_sealevel;temperature;humidity
79368;BME280;68834;53.152;17.962;2023-04-01T00:01:14;99117.06;;;10.41;78.19
79368;BME280;68834;53.152;17.962;2023-04-01T00:03:42;99111.13;;;10.41;78.13
79368;BME280;68834;53.152;17.962;2023-04-01T00:06:13;99111.84;;;10.41;78.12
79368;BME280;68834;53.152;17.962;2023-04-01T00:08:40;99112.32;;;10.42;78.13
79368;BME280;68834;53.152;17.962;2023-04-01T00:11:07;99113.59;;;10.44;78.13
79368;BME280;68834;53.152;17.962;2023-04-01T00:13:34;99109.86;;;10.45;78.06
79368;BME280;68834;53.152;17.962;2023-04-01T00:16:00;99108.94;;;10.47;78.11
79368;BME280;68834;53.152;17.962;2023-04-01T00:18:29;99108.64;;;10.45;78.15
79368;BME280;68834;53.152;17.962;2023-04-01T00:20:56;99107.73;;;10.42;78.14
79368;BME280;68834;53.152;17.962;2023-04-01T00:23:22;99109.36;;;10.42;78.12
79368;BME280;68834;53.152;17.962;2023-04-01T00:25:49;99109.68;;;10.42;78.14
79368;BME280;68834;53.152;17.962;2023-04-01T00:28:18;99105.77;;;10.44;78.06
79368;BME280;68834;53.152;17.962;2023-04-01T00:30:45;99105.60;;;10.44;78.17
79368;BME280;68834;53.152;17.962;2023-04-01T00:33:13;99103.88;;;10.43;78.23
79368;BME280;68834;53.152;17.962;2023-04-01T00:35:39;99103.10;;;10.41;78.15
79368;BME280;68834;53.152;17.962;2023-04-01T00:38:07;99104.39;;;10.40;78.39
79368;BME280;68834;53.152;17.962;2023-04-01T00:40:35;99104.42;;;10.39;78.42
79368;BME280;68834;53.152;17.962;2023-04-01T00:43:02;99102.59;;;10.37;78.42
79368;BME280;68834;53.152;17.962;2023-04-01T00:45:37;99102.70;;;10.39;78.52
79368;BME280;68834;53.152;17.962;2023-04-01T00:48:17;99101.03;;;10.41;78.50
79368;BME280;68834;53.152;17.962;2023-04-01T00:50:52;99100.04;;;10.42;78.47
79368;BME280;68834;53.152;17.962;2023-04-01T00:53:21;99100.55;;;10.43;78.50
79368;BME280;68834;53.152;17.962;2023-04-01T00:55:53;99099.45;;;10.41;78.63
79368;BME280;68834;53.152;17.962;2023-04-01T00:58:24;99099.71;;;10.39;78.53
79368;BME280;68834;53.152;17.962;2023-04-01T01:00:53;99102.13;;;10.36;78.67
79368;BME280;68834;53.152;17.962;2023-04-01T01:03:21;99097.88;;;10.33;78.67
79368;BME280;68834;53.152;17.962;2023-04-01T01:06:00;99097.45;;;10.35;78.69
79368;BME280;68834;53.152;17.962;2023-04-01T01:11:15;99096.21;;;10.39;78.88
79368;BME280;68834;53.152;17.962;2023-04-01T01:13:56;99094.78;;;10.40;78.87
79368;BME280;68834;53.152;17.962;2023-04-01T01:16:27;99093.08;;;10.39;78.90
79368;BME280;68834;53.152;17.962;2023-04-01T01:21:55;99092.40;;;10.34;78.96
79368;BME280;68834;53.152;17.962;2023-04-01T01:25:20;99092.21;;;10.31;78.93
79368;BME280;68834;53.152;17.962;2023-04-01T01:27:28;99094.13;;;10.32;78.84
79368;BME280;68834;53.152;17.962;2023-04-01T01:30:12;99092.80;;;10.34;78.71
79368;BME280;68834;53.152;17.962;2023-04-01T01:33:10;99093.91;;;10.36;78.72
79368;BME280;68834;53.152;17.962;2023-04-01T01:35:46;99096.40;;;10.35;78.78
79368;BME280;68834;53.152;17.962;2023-04-01T01:38:18;99097.09;;;10.32;78.68
79368;BME280;68834;53.152;17.962;2023-04-01T01:40:55;99096.95;;;10.28;78.92
79368;BME280;68834;53.152;17.962;2023-04-01T01:43:27;99094.27;;;10.25;78.82
79368;BME280;68834;53.152;17.962;2023-04-01T01:45:59;99100.76;;;10.24;78.70
79368;BME280;68834;53.152;17.962;2023-04-01T01:48:29;99098.39;;;10.23;78.66
79368;BME280;68834;53.152;17.962;2023-04-01T01:50:57;99095.95;;;10.22;78.54
79368;BME280;68834;53.152;17.962;2023-04-01T01:53:24;99097.37;;;10.22;78.69
79368;BME280;68834;53.152;17.962;2023-04-01T01:55:51;99094.86;;;10.20;78.87
79368;BME280;68834;53.152;17.962;2023-04-01T01:58:23;99093.01;;;10.15;78.66
79368;BME280;68834;53.152;17.962;2023-04-01T02:00:57;99095.00;;;10.10;78.81
79368;BME280;68834;53.152;17.962;2023-04-01T02:03:27;99095.14;;;10.08;78.74
79368;BME280;68834;53.152;17.962;2023-04-01T02:05:59;99096.76;;;10.06;78.65
79368;BME280;68834;53.152;17.962;2023-04-01T02:11:02;99096.48;;;10.05;78.75
79368;BME280;68834;53.152;17.962;2023-04-01T02:13:38;99096.84;;;10.01;78.73
79368;BME280;68834;53.152;17.962;2023-04-01T02:16:28;99093.17;;;9.98;78.78
79368;BME280;68834;53.152;17.962;2023-04-01T02:18:57;99096.86;;;9.94;78.67
79368;BME280;68834;53.152;17.962;2023-04-01T02:21:29;99096.58;;;9.88;78.91
79368;BME280;68834;53.152;17.962;2023-04-01T02:24:00;99096.88;;;9.82;78.91
79368;BME280;68834;53.152;17.962;2023-04-01T02:26:28;99099.05;;;9.81;78.94
79368;BME280;68834;53.152;17.962;2023-04-01T02:28:56;99100.49;;;9.80;78.89
79368;BME280;68834;53.152;17.962;2023-04-01T02:31:24;99099.60;;;9.80;78.90
79368;BME280;68834;53.152;17.962;2023-04-01T02:33:52;99101.99;;;9.81;78.87
79368;BME280;68834;53.152;17.962;2023-04-01T02:36:20;99098.77;;;9.80;78.90
79368;BME280;68834;53.152;17.962;2023-04-01T02:38:47;99103.14;;;9.76;78.88
79368;BME280;68834;53.152;17.962;2023-04-01T02:41:15;99105.61;;;9.72;79.00
79368;BME280;68834;53.152;17.962;2023-04-01T02:43:42;99108.40;;;9.68;78.91
79368;BME280;68834;53.152;17.962;2023-04-01T02:46:09;99110.24;;;9.65;79.05
79368;BME280;68834;53.152;17.962;2023-04-01T02:48:36;99112.69;;;9.66;79.18
79368;BME280;68834;53.152;17.962;2023-04-01T02:51:02;99108.13;;;9.66;78.97
79368;BME280;68834;53.152;17.962;2023-04-01T02:53:30;99116.14;;;9.66;79.11
79368;BME280;68834;53.152;17.962;2023-04-01T02:55:56;99119.94;;;9.67;79.05
79368;BME280;68834;53.152;17.962;2023-04-01T02:58:23;99119.48;;;9.66;79.01
79368;BME280;68834;53.152;17.962;2023-04-01T03:00:50;99120.67;;;9.63;78.95
79368;BME280;68834;53.152;17.962;2023-04-01T03:03:17;99122.58;;;9.59;79.13
79368;BME280;68834;53.152;17.962;2023-04-01T03:05:43;99122.36;;;9.57;79.26
79368;BME280;68834;53.152;17.962;2023-04-01T03:08:10;99125.36;;;9.52;79.16
79368;BME280;68834;53.152;17.962;2023-04-01T03:10:38;99125.81;;;9.50;79.25
79368;BME280;68834;53.152;17.962;2023-04-01T03:13:04;99130.55;;;9.50;79.17
79368;BME280;68834;53.152;17.962;2023-04-01T03:15:32;99129.69;;;9.49;79.12
79368;BME280;68834;53.152;17.962;2023-04-01T03:17:59;99134.90;;;9.50;79.15
79368;BME280;68834;53.152;17.962;2023-04-01T03:20:26;99132.40;;;9.51;79.18
79368;BME280;68834;53.152;17.962;2023-04-01T03:22:53;99137.57;;;9.52;79.11
79368;BME280;68834;53.152;17.962;2023-04-01T03:25:19;99136.46;;;9.50;79.10
79368;BME280;68834;53.152;17.962;2023-04-01T03:27:46;99133.14;;;9.46;79.20
79368;BME280;68834;53.152;17.962;2023-04-01T03:30:13;99136.92;;;9.43;79.11
79368;BME280;68834;53.152;17.962;2023-04-01T03:32:45;99142.02;;;9.42;79.26
79368;BME280;68834;53.152;17.962;2023-04-01T03:35:12;99139.89;;;9.39;79.18
79368;BME280;68834;53.152;17.962;2023-04-01T03:37:38;99147.23;;;9.39;79.14
79368;BME280;68834;53.152;17.962;2023-04-01T03:40:06;99151.45;;;9.38;79.12
79368;BME280;68834;53.152;17.962;2023-04-01T03:42:33;99149.77;;;9.37;79.24
79368;BME280;68834;53.152;17.962;2023-04-01T03:45:00;99153.80;;;9.33;79.29
79368;BME280;68834;53.152;17.962;2023-04-01T03:47:26;99155.49;;;9.30;79.35
79368;BME280;68834;53.152;17.962;2023-04-01T03:49:53;99158.73;;;9.28;79.33
79368;BME280;68834;53.152;17.962;2023-04-01T03:52:20;99160.71;;;9.26;79.28
79368;BME280;68834;53.152;17.962;2023-04-01T03:54:46;99162.38;;;9.24;79.45
79368;BME280;68834;53.152;17.962;2023-04-01T03:57:13;99168.83;;;9.20;79.59
79368;BME280;68834;53.152;17.962;2023-04-01T03:59:40;99168.98;;;9.17;79.58
79368;BME280;68834;53.152;17.962;2023-04-01T04:02:07;99169.95;;;9.15;79.48
79368;BME280;68834;53.152;17.962;2023-04-01T04:04:34;99172.30;;;9.13;79.23
79368;BME280;68834;53.152;17.962;2023-04-01T04:07:00;99175.05;;;9.10;79.33
79368;BME280;68834;53.152;17.962;2023-04-01T04:09:32;99184.84;;;9.09;79.19
79368;BME280;68834;53.152;17.962;2023-04-01T04:12:00;99182.52;;;9.07;79.68
79368;BME280;68834;53.152;17.962;2023-04-01T04:14:27;99184.33;;;9.01;79.49
79368;BME280;68834;53.152;17.962;2023-04-01T04:16:54;99195.17;;;8.96;79.36
79368;BME280;68834;53.152;17.962;2023-04-01T04:19:21;99194.23;;;8.93;79.45
79368;BME280;68834;53.152;17.962;2023-04-01T04:21:47;99193.98;;;8.91;79.34
79368;BME280;68834;53.152;17.962;2023-04-01T04:24:14;99194.41;;;8.89;79.58
79368;BME280;68834;53.152;17.962;2023-04-01T04:27:10;99197.52;;;8.90;79.41
79368;BME280;68834;53.152;17.962;2023-04-01T04:29:43;99199.15;;;8.88;79.41
79368;BME280;68834;53.152;17.962;2023-04-01T04:32:10;99199.42;;;8.86;79.37
79368;BME280;68834;53.152;17.962;2023-04-01T04:34:37;99204.23;;;8.84;79.77
79368;BME280;68834;53.152;17.962;2023-04-01T04:37:04;99205.69;;;8.79;79.65
79368;BME280;68834;53.152;17.962;2023-04-01T04:39:33;99208.69;;;8.73;79.60
79368;BME280;68834;53.152;17.962;2023-04-01T04:42:00;99212.92;;;8.72;79.44
79368;BME280;68834;53.152;17.962;2023-04-01T04:44:26;99214.85;;;8.72;79.44
79368;BME280;68834;53.152;17.962;2023-04-01T04:46:53;99216.84;;;8.70;79.67
79368;BME280;68834;53.152;17.962;2023-04-01T04:49:20;99220.44;;;8.67;79.50
79368;BME280;68834;53.152;17.962;2023-04-01T04:51:46;99217.77;;;8.64;79.57
79368;BME280;68834;53.152;17.962;2023-04-01T04:54:14;99217.86;;;8.62;79.34
79368;BME280;68834;53.152;17.962;2023-04-01T04:56:52;99225.49;;;8.59;79.51
79368;BME280;68834;53.152;17.962;2023-04-01T04:59:19;99225.74;;;8.53;79.64
79368;BME280;68834;53.152;17.962;2023-04-01T05:01:51;99229.15;;;8.46;79.62
79368;BME280;68834;53.152;17.962;2023-04-01T05:04:17;99234.00;;;8.42;79.80
79368;BME280;68834;53.152;17.962;2023-04-01T05:06:44;99232.37;;;8.40;79.74
79368;BME280;68834;53.152;17.962;2023-04-01T05:09:11;99237.42;;;8.39;79.83
79368;BME280;68834;53.152;17.962;2023-04-01T05:11:38;99241.55;;;8.41;79.79
79368;BME280;68834;53.152;17.962;2023-04-01T05:14:05;99245.23;;;8.40;79.83
79368;BME280;68834;53.152;17.962;2023-04-01T05:16:32;99246.52;;;8.38;79.85
79368;BME280;68834;53.152;17.962;2023-04-01T05:18:59;99250.96;;;8.35;80.04
79368;BME280;68834;53.152;17.962;2023-04-01T05:21:25;99255.77;;;8.33;79.68
79368;BME280;68834;53.152;17.962;2023-04-01T05:23:53;99258.04;;;8.28;79.94
79368;BME280;68834;53.152;17.962;2023-04-01T05:26:20;99263.38;;;8.25;79.88
79368;BME280;68834;53.152;17.962;2023-04-01T05:28:46;99262.79;;;8.22;79.58
79368;BME280;68834;53.152;17.962;2023-04-01T05:31:13;99264.74;;;8.21;79.59
79368;BME280;68834;53.152;17.962;2023-04-01T05:33:42;99266.16;;;8.21;79.24
79368;BME280;68834;53.152;17.962;2023-04-01T05:36:11;99267.36;;;8.21;79.35
79368;BME280;68834;53.152;17.962;2023-04-01T05:38:38;99268.43;;;8.21;79.64
79368;BME280;68834;53.152;17.962;2023-04-01T05:41:05;99269.91;;;8.18;79.69
79368;BME280;68834;53.152;17.962;2023-04-01T05:43:36;99267.31;;;8.14;79.38
79368;BME280;68834;53.152;17.962;2023-04-01T05:46:09;99267.16;;;8.09;79.23
79368;BME280;68834;53.152;17.962;2023-04-01T05:48:42;99271.20;;;8.08;79.41
79368;BME280;68834;53.152;17.962;2023-04-01T05:51:13;99277.54;;;8.10;79.38
79368;BME280;68834;53.152;17.962;2023-04-01T05:53:41;99278.13;;;8.13;79.06
79368;BME280;68834;53.152;17.962;2023-04-01T05:56:08;99283.12;;;8.15;79.35
79368;BME280;68834;53.152;17.962;2023-04-01T05:58:39;99285.69;;;8.15;79.17
79368;BME280;68834;53.152;17.962;2023-04-01T06:01:10;99290.14;;;8.17;79.04
79368;BME280;68834;53.152;17.962;2023-04-01T06:03:38;99292.80;;;8.16;79.12
79368;BME280;68834;53.152;17.962;2023-04-01T06:06:11;99293.20;;;8.15;79.14
79368;BME280;68834;53.152;17.962;2023-04-01T06:08:40;99295.70;;;8.13;79.10
79368;BME280;68834;53.152;17.962;2023-04-01T06:11:19;99295.00;;;8.13;79.22
79368;BME280;68834;53.152;17.962;2023-04-01T06:13:56;99296.68;;;8.15;78.82
79368;BME280;68834;53.152;17.962;2023-04-01T06:21:41;99309.01;;;8.20;78.44
79368;BME280;68834;53.152;17.962;2023-04-01T06:24:40;99312.19;;;8.23;78.40
79368;BME280;68834;53.152;17.962;2023-04-01T06:27:34;99314.02;;;8.25;78.57
79368;BME280;68834;53.152;17.962;2023-04-01T06:30:33;99311.71;;;8.27;78.72
79368;BME280;68834;53.152;17.962;2023-04-01T06:33:11;99313.42;;;8.28;78.38
79368;BME280;68834;53.152;17.962;2023-04-01T06:36:01;99319.38;;;8.26;78.52
79368;BME280;68834;53.152;17.962;2023-04-01T06:41:27;99326.65;;;8.32;77.88
79368;BME280;68834;53.152;17.962;2023-04-01T06:47:58;99328.66;;;8.39;77.82
79368;BME280;68834;53.152;17.962;2023-04-01T06:50:56;99334.06;;;8.43;77.94
79368;BME280;68834;53.152;17.962;2023-04-01T06:53:54;99333.49;;;8.44;77.83
79368;BME280;68834;53.152;17.962;2023-04-01T06:56:43;99335.42;;;8.44;77.61
79368;BME280;68834;53.152;17.962;2023-04-01T06:59:25;99338.56;;;8.44;78.01
79368;BME280;68834;53.152;17.962;2023-04-01T07:01:57;99341.32;;;8.45;77.90
79368;BME280;68834;53.152;17.962;2023-04-01T07:04:29;99343.56;;;8.45;77.60
79368;BME280;68834;53.152;17.962;2023-04-01T07:07:04;99345.72;;;8.48;77.33
79368;BME280;68834;53.152;17.962;2023-04-01T07:09:38;99349.93;;;8.52;77.29
79368;BME280;68834;53.152;17.962;2023-04-01T07:15:39;99356.59;;;8.64;77.12
79368;BME280;68834;53.152;17.962;2023-04-01T07:18:23;99359.77;;;8.67;77.01
79368;BME280;68834;53.152;17.962;2023-04-01T07:20:55;99363.12;;;8.71;76.92
79368;BME280;68834;53.152;17.962;2023-04-01T07:23:32;99366.70;;;8.73;77.29
79368;BME280;68834;53.152;17.962;2023-04-01T07:26:21;99368.98;;;8.72;77.09
79368;BME280;68834;53.152;17.962;2023-04-01T07:29:13;99368.91;;;8.70;76.87
79368;BME280;68834;53.152;17.962;2023-04-01T07:31:59;99370.89;;;8.73;
79368;BME280;68834;53.152;17.962;2023-04-01T07:34:47;99368.13;;;8.77;76.85
79368;BME280;68834;53.152;17.962;2023-04-01T07:37:30;99368.52;;;8.80;76.53
79368;BME280;68834;53.152;17.962;2023-04-01T07:45:34;99385.13;;;8.87;75.96
79368;BME280;68834;53.152;17.962;2023-04-01T07:51:03;99394.99;;;8.84;75.93
79368;BME280;68834;53.152;17.962;2023-04-01T07:53:45;99397.99;;;8.79;76.04
79368;BME280;68834;53.152;17.962;2023-04-01T07:56:32;99399.21;;;8.79;75.70
79368;BME280;68834;53.152;17.962;2023-04-01T08:08:03;99419.07;;;8.70;75.39
79368;BME280;68834;53.152;17.962;2023-04-01T08:19:31;99433.99;;;8.48;75.52
79368;BME280;68834;53.152;17.962;2023-04-01T08:22:09;99441.63;;;8.49;75.70
79368;BME280;68834;53.152;17.962;2023-04-01T08:24:42;99441.80;;;8.54;75.96
79368;BME280;68834;53.152;17.962;2023-04-01T08:27:17;99443.96;;;8.61;75.43
79368;BME280;68834;53.152;17.962;2023-04-01T08:29:53;99449.34;;;8.71;75.51
79368;BME280;68834;53.152;17.962;2023-04-01T08:32:43;99446.97;;;8.83;75.52
79368;BME280;68834;53.152;17.962;2023-04-01T08:35:34;99452.20;;;8.96;75.53
79368;BME280;68834;53.152;17.962;2023-04-01T08:38:24;99453.86;;;9.07;75.19
79368;BME280;68834;53.152;17.962;2023-04-01T08:46:56;99455.39;;;9.26;74.27
79368;BME280;68834;53.152;17.962;2023-04-01T09:23:59;99493.11;;;9.96;72.35
79368;BME280;68834;53.152;17.962;2023-04-01T09:29:59;99497.73;;;10.02;71.82
79368;BME280;68834;53.152;17.962;2023-04-01T09:32:51;99501.08;;;10.10;71.48
79368;BME280;68834;53.152;17.962;2023-04-01T09:35:48;99501.89;;;10.11;71.44
79368;BME280;68834;53.152;17.962;2023-04-01T09:43:51;99516.42;;;10.10;70.75
79368;BME280;68834;53.152;17.962;2023-04-01T09:46:42;99519.38;;;10.10;71.06
79368;BME280;68834;53.152;17.962;2023-04-01T10:00:39;99530.25;;;10.47;69.75
79368;BME280;68834;53.152;17.962;2023-04-01T10:03:37;99528.03;;;10.53;70.25
79368;BME280;68834;53.152;17.962;2023-04-01T10:09:19;99539.85;;;10.58;70.31
79368;BME280;68834;53.152;17.962;2023-04-01T10:41:34;99558.23;;;10.66;68.27
79368;BME280;68834;53.152;17.962;2023-04-01T10:56:46;99570.11;;;10.66;68.29
79368;BME280;68834;53.152;17.962;2023-04-01T11:03:31;99569.86;;;10.79;68.13
79368;BME280;68834;53.152;17.962;2023-04-01T11:09:51;99574.50;;;10.85;67.84
79368;BME280;68834;53.152;17.962;2023-04-01T11:15:31;99584.05;;;10.75;67.58
79368;BME280;68834;53.152;17.962;2023-04-01T11:27:39;99599.92;;;10.47;67.51
79368;BME280;68834;53.152;17.962;2023-04-01T11:30:17;99604.45;;;10.40;67.69
79368;BME280;68834;53.152;17.962;2023-04-01T11:35:40;99616.63;;;10.32;67.59
79368;BME280;68834;53.152;17.962;2023-04-01T11:38:44;99621.38;;;10.27;67.65
79368;BME280;68834;53.152;17.962;2023-04-01T11:41:46;99627.54;;;10.21;67.77
79368;BME280;68834;53.152;17.962;2023-04-01T11:44:42;99632.73;;;10.18;67.85
79368;BME280;68834;53.152;17.962;2023-04-01T11:47:44;99631.71;;;10.13;68.10
79368;BME280;68834;53.152;17.962;2023-04-01T11:53:28;99640.02;;;10.07;68.02
79368;BME280;68834;53.152;17.962;2023-04-01T12:01:56;99654.30;;;10.03;67.55
79368;BME280;68834;53.152;17.962;2023-04-01T12:13:51;99653.89;;;10.26;67.10
79368;BME280;68834;53.152;17.962;2023-04-01T12:25:27;99669.39;;;10.28;66.88
79368;BME280;68834;53.152;17.962;2023-04-01T12:28:10;99676.61;;;10.26;66.50
79368;BME280;68834;53.152;17.962;2023-04-01T12:33:48;99688.73;;;10.33;66.56
79368;BME280;68834;53.152;17.962;2023-04-01T12:36:42;99692.23;;;10.33;66.29
79368;BME280;68834;53.152;17.962;2023-04-01T12:47:43;99696.24;;;10.71;65.45
79368;BME280;68834;53.152;17.962;2023-04-01T12:50:23;99697.83;;;10.87;64.92
79368;BME280;68834;53.152;17.962;2023-04-01T12:53:18;99697.99;;;10.95;64.62
79368;BME280;68834;53.152;17.962;2023-04-01T12:55:49;99702.16;;;11.00;64.95
79368;BME280;68834;53.152;17.962;2023-04-01T13:01:22;99709.52;;;11.08;64.17
79368;BME280;68834;53.152;17.962;2023-04-01T13:23:11;99739.13;;;11.14;62.88
79368;BME280;68834;53.152;17.962;2023-04-01T13:25:49;99742.48;;;11.06;62.56
79368;BME280;68834;53.152;17.962;2023-04-01T13:28:28;99744.36;;;10.94;62.26
79368;BME280;68834;53.152;17.962;2023-04-01T13:31:09;99742.88;;;10.84;62.37
79368;BME280;68834;53.152;17.962;2023-04-01T13:33:45;99749.91;;;10.75;62.58
79368;BME280;68834;53.152;17.962;2023-04-01T13:36:23;99746.85;;;10.64;62.56
79368;BME280;68834;53.152;17.962;2023-04-01T13:39:01;99745.73;;;10.53;62.62
79368;BME280;68834;53.152;17.962;2023-04-01T13:44:15;99753.61;;;10.40;62.70
79368;BME280;68834;53.152;17.962;2023-04-01T13:46:54;99757.05;;;10.37;62.59
79368;BME280;68834;53.152;17.962;2023-04-01T13:52:25;99766.31;;;10.28;62.98
79368;BME280;68834;53.152;17.962;2023-04-01T13:55:18;99770.11;;;10.24;63.12
79368;BME280;68834;53.152;17.962;2023-04-01T13:57:56;99774.77;;;10.16;63.15
79368;BME280;68834;53.152;17.962;2023-04-01T14:06:35;99793.02;;;9.90;63.53
79368;BME280;68834;53.152;17.962;2023-04-01T14:11:50;99801.02;;;9.78;63.69
79368;BME280;68834;53.152;17.962;2023-04-01T14:17:41;99804.41;;;9.66;63.59
79368;BME280;68834;53.152;17.962;2023-04-01T14:20:22;99803.35;;;9.61;63.71
79368;BME280;68834;53.152;17.962;2023-04-01T14:31:30;99821.27;;;9.38;63.95
79368;BME280;68834;53.152;17.962;2023-04-01T14:42:49;99837.15;;;9.23;64.09
79368;BME280;68834;53.152;17.962;2023-04-01T14:45:29;99839.18;;;9.19;64.21
79368;BME280;68834;53.152;17.962;2023-04-01T14:48:30;99842.45;;;9.15;64.13
79368;BME280;68834;53.152;17.962;2023-04-01T14:51:15;99845.58;;;9.10;64.35
79368;BME280;68834;53.152;17.962;2023-04-01T14:56:36;99855.13;;;8.96;64.06
79368;BME280;68834;53.152;17.962;2023-04-01T14:59:25;99859.74;;;8.88;64.15
79368;BME280;68834;53.152;17.962;2023-04-01T15:02:03;99862.14;;;8.78;64.02
79368;BME280;68834;53.152;17.962;2023-04-01T15:10:12;99871.79;;;8.54;64.59
79368;BME280;68834;53.152;17.962;2023-04-01T15:12:58;99878.05;;;8.48;64.64
79368;BME280;68834;53.152;17.962;2023-04-01T15:19:37;99888.54;;;8.28;64.74
79368;BME280;68834;53.152;17.962;2023-04-01T15:21:48;99890.27;;;8.23;65.09
79368;BME280;68834;53.152;17.962;2023-04-01T15:24:22;99900.44;;;8.20;64.80
79368;BME280;68834;53.152;17.962;2023-04-01T15:33:00;99912.42;;;8.15;65.35
79368;BME280;68834;53.152;17.962;2023-04-01T15:46:48;99933.69;;;7.88;66.05
79368;BME280;68834;53.152;17.962;2023-04-01T15:49:41;99934.46;;;7.80;66.14
79368;BME280;68834;53.152;17.962;2023-04-01T15:52:24;99939.73;;;7.71;66.10
79368;BME280;68834;53.152;17.962;2023-04-01T15:55:32;99944.80;;;7.63;66.17
79368;BME280;68834;53.152;17.962;2023-04-01T15:59:06;99950.91;;;7.55;66.39
79368;BME280;68834;53.152;17.962;2023-04-01T16:01:17;99955.27;;;7.48;66.66
79368;BME280;68834;53.152;17.962;2023-04-01T16:06:56;99962.49;;;7.37;66.88
79368;BME280;68834;53.152;17.962;2023-04-01T16:09:43;99967.26;;;7.34;66.87
79368;BME280;68834;53.152;17.962;2023-04-01T16:15:24;99977.20;;;7.25;66.56
79368;BME280;68834;53.152;17.962;2023-04-01T16:18:04;99982.23;;;7.18;66.87
79368;BME280;68834;53.152;17.962;2023-04-01T16:26:20;99998.84;;;7.06;67.13
79368;BME280;68834;53.152;17.962;2023-04-01T16:34:10;100013.44;;;6.91;67.59
79368;BME280;68834;53.152;17.962;2023-04-01T16:39:37;100023.78;;;6.78;67.85
79368;BME280;68834;53.152;17.962;2023-04-01T16:42:19;100026.35;;;6.71;67.79
79368;BME280;68834;53.152;17.962;2023-04-01T16:47:27;100037.77;;;6.65;68.04
79368;BME280;68834;53.152;17.962;2023-04-01T16:50:05;100042.71;;;6.62;68.16
79368;BME280;68834;53.152;17.962;2023-04-01T16:52:54;100048.66;;;6.59;67.96
79368;BME280;68834;53.152;17.962;2023-04-01T16:58:14;100057.56;;;6.47;68.08
79368;BME280;68834;53.152;17.962;2023-04-01T17:00:50;100066.19;;;6.41;68.31
79368;BME280;68834;53.152;17.962;2023-04-01T17:03:33;100066.81;;;6.36;68.29
79368;BME280;68834;53.152;17.962;2023-04-01T17:06:20;100070.07;;;6.29;68.18
79368;BME280;68834;53.152;17.962;2023-04-01T17:14:28;100086.26;;;6.06;68.38
79368;BME280;68834;53.152;17.962;2023-04-01T17:17:15;100091.89;;;6.00;68.58
79368;BME280;68834;53.152;17.962;2023-04-01T17:20:12;100089.58;;;5.95;68.65
79368;BME280;68834;53.152;17.962;2023-04-01T17:22:55;100090.81;;;5.91;68.90
79368;BME280;68834;53.152;17.962;2023-04-01T17:36:19;100112.02;;;5.88;68.93
79368;BME280;68834;53.152;17.962;2023-04-01T17:39:04;100116.98;;;5.81;68.89
79368;BME280;68834;53.152;17.962;2023-04-01T17:53:21;100148.83;;;5.50;69.62
79368;BME280;68834;53.152;17.962;2023-04-01T17:56:11;100154.95;;;5.45;69.65
79368;BME280;68834;53.152;17.962;2023-04-01T18:09:47;100172.12;;;5.44;70.01
79368;BME280;68834;53.152;17.962;2023-04-01T18:20:47;100195.15;;;5.32;70.97
79368;BME280;68834;53.152;17.962;2023-04-01T18:23:29;100203.00;;;5.28;71.30
79368;BME280;68834;53.152;17.962;2023-04-01T18:26:11;100202.53;;;5.25;71.59
79368;BME280;68834;53.152;17.962;2023-04-01T18:28:42;100207.40;;;5.22;71.58
79368;BME280;68834;53.152;17.962;2023-04-01T18:31:15;100210.05;;;5.18;71.73
79368;BME280;68834;53.152;17.962;2023-04-01T18:36:56;100214.77;;;5.15;72.11
79368;BME280;68834;53.152;17.962;2023-04-01T18:39:57;100218.40;;;5.15;72.22
79368;BME280;68834;53.152;17.962;2023-04-01T18:42:36;100221.69;;;5.15;72.08
79368;BME280;68834;53.152;17.962;2023-04-01T18:45:23;100226.56;;;5.13;72.02
79368;BME280;68834;53.152;17.962;2023-04-01T18:48:30;100230.23;;;5.10;72.05
79368;BME280;68834;53.152;17.962;2023-04-01T18:51:03;100234.30;;;5.02;72.44
79368;BME280;68834;53.152;17.962;2023-04-01T18:53:53;100236.29;;;4.93;72.32
79368;BME280;68834;53.152;17.962;2023-04-01T18:56:38;100246.73;;;4.88;72.62
79368;BME280;68834;53.152;17.962;2023-04-01T18:59:27;100245.05;;;4.82;72.98
79368;BME280;68834;53.152;17.962;2023-04-01T19:02:25;100251.19;;;4.75;73.18
79368;BME280;68834;53.152;17.962;2023-04-01T19:05:10;100257.13;;;4.69;73.09
79368;BME280;68834;53.152;17.962;2023-04-01T19:07:48;100262.85;;;4.68;72.94
79368;BME280;68834;53.152;17.962;2023-04-01T19:10:17;100265.59;;;4.69;73.24
79368;BME280;68834;53.152;17.962;2023-04-01T19:18:57;100272.34;;;4.71;73.36
79368;BME280;68834;53.152;17.962;2023-04-01T19:21:33;100277.02;;;4.69;73.37
79368;BME280;68834;53.152;17.962;2023-04-01T19:24:11;100280.17;;;4.66;73.72
79368;BME280;68834;53.152;17.962;2023-04-01T19:29:37;100291.84;;;4.57;73.81
79368;BME280;68834;53.152;17.962;2023-04-01T19:38:11;100304.77;;;4.44;73.98
79368;BME280;68834;53.152;17.962;2023-04-01T19:40:52;100310.46;;;4.44;74.02
79368;BME280;68834;53.152;17.962;2023-04-01T19:51:39;100325.82;;;4.50;74.29
79368;BME280;68834;53.152;17.962;2023-04-01T19:54:36;100325.11;;;4.49;74.32
79368;BME280;68834;53.152;17.962;2023-04-01T20:00:07;100333.98;;;4.44;74.50
79368;BME280;68834;53.152;17.962;2023-04-01T20:02:55;100338.52;;;4.41;74.76
79368;BME280;68834;53.152;17.962;2023-04-01T20:05:28;100339.41;;;4.36;74.76
79368;BME280;68834;53.152;17.962;2023-04-01T20:16:06;100354.87;;;4.24;75.20
79368;BME280;68834;53.152;17.962;2023-04-01T20:18:41;100358.84;;;4.26;75.06
79368;BME280;68834;53.152;17.962;2023-04-01T20:23:44;100360.89;;;4.30;74.96
79368;BME280;68834;53.152;17.962;2023-04-01T20:26:14;100367.63;;;4.33;74.97
79368;BME280;68834;53.152;17.962;2023-04-01T20:29:17;100367.79;;;4.34;75.03
79368;BME280;68834;53.152;17.962;2023-04-01T20:34:50;100378.51;;;4.35;75.26
79368;BME280;68834;53.152;17.962;2023-04-01T20:37:37;100381.46;;;4.34;75.23
79368;BME280;68834;53.152;17.962;2023-04-01T20:51:04;100387.38;;;4.26;75.07